Gillette, WY

2:06 PM MDT on September 18, 2014 (GMT -0600)
Gillette-Campbell County | Change Station
CLOSE
Current Station
Airport
Location: Gillette,
Elevation: 4364 ft
Nearby Weather Stations

Elev 4364 ft 44.34 °N, 105.54 °W | Updated 13 minutes ago

Clear
Clear
89 °F
Feels Like 89 °F
N
7
Wind Variable Wind from NW

Today
High -- | Low -- °F
--% Chance of Precip.
Yesterday
High -- | Low -- °F
Precip. -- in
6:45 AM 7:07 PM
Waning Crescent, 25% visible
Pressure 29.67 in
Visibility 10.0 miles
Clouds Clear
Dew Point 42 °F
Humidity 19%
Rainfall 0.00 in
Snow Depth 0 in , 0 in , 0 in
UV 7 out of 12
Pollen 6.00 out of 12
Air Quality Not available.
Flu Activity Not available.
METAR KGCC 181953Z AUTO 32006KT 10SM CLR 32/06 A2983 RMK AO2 SLP046 T03170056

More Conditions Fewer Conditions

Pressure 29.67 in
Visibility 10.0 miles
Clouds Clear
Dew Point 42 °F
Humidity 19%
Rainfall 0.00 in
Snow Depth 0 in , 0 in , 0 in
UV 7 out of 12
Pollen 6.00 out of 12
Air Quality Not available.
Flu Activity Not available.
METAR KGCC 181953Z AUTO 32006KT 10SM CLR 32/06 A2983 RMK AO2 SLP046 T03170056

More Conditions Fewer Conditions

10-Day Weather Forecast

Almanac

Astronomy

Sep. 18, 2014 Rise Set
Actual Time 6:45 AM MDT 7:07 PM MDT
Civil Twilight 6:15 AM MDT 7:36 PM MDT
Nautical Twilight 5:41 AM MDT 8:11 PM MDT
Astronomical Twilight 5:06 AM MDT 8:46 PM MDT
Moon 1:30 AM MDT 4:09 PM MDT
Length of Visible Light 13h 20m
Length of Day
12h 22m
Tomorrow will be 3m 3s shorter.
Waning Crescent, 25% of the Moon is Illuminated
Today
Waning Crescent
Sep 24
New
Oct 1
First Quarter
Oct 8
Full
Oct 15
Last Quarter

Today's Extremes

State Highs State Lows

Community

WunderPhotos

Upload Photos

1,754,423 photos uploaded!

WunderBlogs® & News

By Dr. Jeff Masters
Director of Meteorology, Weather Underground
By Kari Strenfel
Meteorologist, Weather Underground
By Christopher C. Burt
Weather Historian, Weather Underground
September 18, 2014
September 18, 2014
September 18, 2014

Nearby

Snow Depth

Station Depth Elevation
Bald Mountain 0 in 9380 ft
Cinnabar Park 0 in 9690 ft
Phillips Bench 0 in 8200 ft
Sylvan Lake 0 in 8420 ft
Lewis Lake Divide 0 in 7850 ft

Earthquake Activity

City Distance Mag. Time & Date
No recent earthquake activity has been reported nearby.
Minimum magnitude displayed is 2.5.

Coastal Water Temperatures

Place Temperature
No Stations Reporting

Nearby Weather Stations